createdAt,value
2017-02-28T00:00:43.981Z,0
2017-02-28T00:01:44.363Z,0
2017-02-28T00:02:44.340Z,0
2017-02-28T00:03:44.340Z,0
2017-02-28T00:04:44.319Z,0
2017-02-28T00:05:43.897Z,0
2017-02-28T00:06:44.295Z,0
2017-02-28T00:07:43.871Z,0
2017-02-28T00:08:44.259Z,0
2017-02-28T00:09:44.224Z,0
2017-02-28T00:10:44.196Z,0
2017-02-28T00:11:44.194Z,0
2017-02-28T00:12:44.176Z,0
2017-02-28T00:13:43.759Z,0
2017-02-28T00:14:44.133Z,0
2017-02-28T00:15:44.106Z,0
2017-02-28T00:16:44.097Z,0
2017-02-28T00:17:43.679Z,0
2017-02-28T00:18:43.664Z,0
2017-02-28T00:19:44.039Z,0
2017-02-28T00:20:43.633Z,0
2017-02-28T00:21:44.013Z,0
2017-02-28T00:22:43.616Z,0
2017-02-28T00:23:43.958Z,0
2017-02-28T00:24:43.947Z,0
2017-02-28T00:25:43.941Z,0
2017-02-28T00:26:43.911Z,0
2017-02-28T00:27:43.902Z,0
2017-02-28T00:28:43.889Z,0
2017-02-28T00:29:43.853Z,0
2017-02-28T00:30:43.844Z,0
2017-02-28T00:31:43.812Z,0
2017-02-28T00:32:43.798Z,0
2017-02-28T00:33:43.774Z,0
2017-02-28T00:34:43.756Z,0
2017-02-28T00:35:43.748Z,0
2017-02-28T00:36:43.726Z,0
2017-02-28T00:37:43.715Z,0
2017-02-28T00:38:43.696Z,0
2017-02-28T00:39:43.650Z,0
2017-02-28T00:40:43.643Z,0
2017-02-28T00:41:43.244Z,0
2017-02-28T00:42:43.628Z,0
2017-02-28T00:43:43.602Z,0
2017-02-28T00:44:43.577Z,0
2017-02-28T00:45:43.540Z,0
2017-02-28T00:46:43.545Z,0
2017-02-28T00:47:43.506Z,0
2017-02-28T00:48:43.095Z,0
2017-02-28T00:49:43.105Z,0
2017-02-28T00:50:43.450Z,0
2017-02-28T00:51:43.054Z,0
2017-02-28T00:52:43.417Z,0
2017-02-28T00:53:43.425Z,0
2017-02-28T00:54:43.389Z,0
2017-02-28T00:55:42.956Z,0
2017-02-28T00:56:43.338Z,0
2017-02-28T00:57:43.314Z,0
2017-02-28T00:58:42.925Z,0
2017-02-28T00:59:43.289Z,0
2017-02-28T01:00:43.263Z,0
2017-02-28T01:01:43.237Z,0
2017-02-28T01:02:43.224Z,0
2017-02-28T01:03:43.197Z,0
2017-02-28T01:04:43.201Z,0
2017-02-28T01:05:43.163Z,0
2017-02-28T01:06:42.748Z,0
2017-02-28T01:07:43.118Z,0
2017-02-28T01:08:43.102Z,0
2017-02-28T01:09:43.099Z,0
2017-02-28T01:10:43.079Z,0
2017-02-28T01:11:43.058Z,0
2017-02-28T01:12:43.034Z,0
2017-02-28T01:13:43.016Z,0
2017-02-28T01:14:42.995Z,0
2017-02-28T01:15:42.968Z,0
2017-02-28T01:16:42.947Z,0
2017-02-28T01:17:42.940Z,0
2017-02-28T01:18:42.925Z,0
2017-02-28T01:19:42.900Z,0
2017-02-28T01:20:42.870Z,0
2017-02-28T01:21:42.869Z,0
2017-02-28T01:22:42.836Z,0
2017-02-28T01:23:42.810Z,0
2017-02-28T01:24:42.412Z,0
2017-02-28T01:25:42.792Z,0
2017-02-28T01:26:42.768Z,0
2017-02-28T01:27:42.744Z,0
2017-02-28T01:28:42.731Z,0
2017-02-28T01:29:42.707Z,0
2017-02-28T01:30:42.685Z,0
2017-02-28T01:31:42.659Z,0
2017-02-28T01:32:42.656Z,0
2017-02-28T01:33:42.629Z,0
2017-02-28T01:34:42.610Z,0
2017-02-28T01:35:42.199Z,0
2017-02-28T01:36:42.583Z,0
2017-02-28T01:37:42.551Z,0
2017-02-28T01:38:42.532Z,0
2017-02-28T01:39:42.126Z,0
2017-02-28T01:40:42.491Z,0
2017-02-28T01:41:42.063Z,0
2017-02-28T01:42:42.052Z,0
2017-02-28T01:43:42.438Z,0
2017-02-28T01:44:42.409Z,0
2017-02-28T01:45:42.397Z,0
2017-02-28T01:46:42.390Z,0
2017-02-28T01:47:42.345Z,0
2017-02-28T01:48:42.338Z,0
2017-02-28T01:49:42.319Z,0
2017-02-28T01:50:42.296Z,0
2017-02-28T01:51:42.267Z,0
2017-02-28T01:52:42.270Z,0
2017-02-28T01:53:42.230Z,0
2017-02-28T01:54:42.230Z,0
2017-02-28T01:55:42.190Z,0
2017-02-28T01:56:42.181Z,0
2017-02-28T01:57:42.184Z,0
2017-02-28T01:58:42.139Z,0
2017-02-28T01:59:41.776Z,0
2017-02-28T02:00:42.102Z,0
2017-02-28T02:01:41.689Z,0
2017-02-28T02:02:42.082Z,0
2017-02-28T02:03:42.032Z,0
2017-02-28T02:04:41.619Z,0
2017-02-28T02:05:42.009Z,0
2017-02-28T02:06:41.996Z,0
2017-02-28T02:07:41.964Z,0
2017-02-28T02:08:41.945Z,0
2017-02-28T02:09:41.921Z,0
2017-02-28T02:10:41.911Z,0
2017-02-28T02:11:41.890Z,0
2017-02-28T02:12:41.861Z,0
2017-02-28T02:13:41.858Z,0
2017-02-28T02:14:41.835Z,0
2017-02-28T02:15:41.816Z,0
2017-02-28T02:16:41.786Z,0
2017-02-28T02:17:41.785Z,0
2017-02-28T02:18:41.762Z,0
2017-02-28T02:19:41.748Z,0
2017-02-28T02:20:41.711Z,0
2017-02-28T02:21:41.287Z,0
2017-02-28T02:22:41.657Z,0
2017-02-28T02:23:41.649Z,0
2017-02-28T02:24:41.630Z,0
2017-02-28T02:25:41.616Z,0
2017-02-28T02:26:41.191Z,0
2017-02-28T02:27:41.185Z,0
2017-02-28T02:28:41.543Z,0
2017-02-28T02:29:41.529Z,0
2017-02-28T02:30:41.513Z,0
2017-02-28T02:31:41.108Z,0
2017-02-28T02:32:41.492Z,0
2017-02-28T02:33:41.472Z,0
2017-02-28T02:34:41.438Z,0
2017-02-28T02:35:41.423Z,0
2017-02-28T02:36:41.393Z,0
2017-02-28T02:37:41.369Z,0
2017-02-28T02:38:41.349Z,0
2017-02-28T02:39:41.329Z,0
2017-02-28T02:40:41.313Z,0
2017-02-28T02:41:41.295Z,0
2017-02-28T02:42:41.298Z,0
2017-02-28T02:43:41.276Z,0
2017-02-28T02:44:41.241Z,0
2017-02-28T02:45:40.829Z,0
2017-02-28T02:46:41.236Z,0
2017-02-28T02:47:41.212Z,0
2017-02-28T02:48:41.381Z,0
2017-02-28T02:49:41.141Z,0
2017-02-28T02:50:41.121Z,0
2017-02-28T02:51:41.104Z,0
2017-02-28T02:52:41.091Z,0
2017-02-28T02:53:41.088Z,0
2017-02-28T02:54:41.042Z,0
2017-02-28T02:55:40.649Z,0
2017-02-28T02:56:41.010Z,0
2017-02-28T02:57:40.988Z,0
2017-02-28T02:58:40.979Z,0
2017-02-28T02:59:40.947Z,0
2017-02-28T03:00:40.938Z,0
2017-02-28T03:01:40.931Z,0
2017-02-28T03:02:40.889Z,0
2017-02-28T03:03:40.877Z,0
2017-02-28T03:04:40.855Z,0
2017-02-28T03:05:40.848Z,0
2017-02-28T03:06:40.823Z,0
2017-02-28T03:07:40.797Z,0
2017-02-28T03:08:40.800Z,0
2017-02-28T03:09:40.747Z,0
2017-02-28T03:10:40.733Z,0
2017-02-28T03:11:40.715Z,0
2017-02-28T03:12:40.689Z,0
2017-02-28T03:13:40.668Z,0
2017-02-28T03:14:40.639Z,0
2017-02-28T03:15:40.244Z,0
2017-02-28T03:16:40.605Z,0
2017-02-28T03:17:40.588Z,0
2017-02-28T03:18:40.584Z,0
2017-02-28T03:19:40.165Z,0
2017-02-28T03:20:40.143Z,0
2017-02-28T03:21:40.516Z,0
2017-02-28T03:22:40.488Z,0
2017-02-28T03:23:40.483Z,0
2017-02-28T03:24:40.453Z,0
2017-02-28T03:25:40.039Z,0
2017-02-28T03:26:40.424Z,0
2017-02-28T03:27:40.382Z,0
2017-02-28T03:28:40.377Z,0
2017-02-28T03:29:40.355Z,0
2017-02-28T03:30:40.342Z,0
2017-02-28T03:31:40.322Z,0
2017-02-28T03:32:40.302Z,0
2017-02-28T03:33:40.283Z,0
2017-02-28T03:34:40.258Z,0
2017-02-28T03:35:40.227Z,0
2017-02-28T03:36:39.804Z,0
2017-02-28T03:37:40.201Z,0
2017-02-28T03:38:40.179Z,0
2017-02-28T03:39:40.160Z,0
2017-02-28T03:40:40.118Z,0
2017-02-28T03:41:40.103Z,0
2017-02-28T03:42:40.095Z,0
2017-02-28T03:43:40.070Z,0
2017-02-28T03:44:39.650Z,0
2017-02-28T03:45:40.017Z,0
2017-02-28T03:46:40.017Z,0
2017-02-28T03:47:39.591Z,0
2017-02-28T03:48:40.000Z,0
2017-02-28T03:49:39.940Z,0
2017-02-28T03:50:39.946Z,0
2017-02-28T03:51:39.501Z,0
2017-02-28T03:52:39.887Z,0
2017-02-28T03:53:39.483Z,0
2017-02-28T03:54:39.843Z,0
2017-02-28T03:55:39.841Z,0
2017-02-28T03:56:39.414Z,0
2017-02-28T03:57:39.397Z,0
2017-02-28T03:58:39.358Z,0
2017-02-28T03:59:39.346Z,0
2017-02-28T04:00:39.734Z,0
2017-02-28T04:01:39.324Z,0
2017-02-28T04:02:39.679Z,0
2017-02-28T04:03:39.661Z,0
2017-02-28T04:04:39.246Z,0
2017-02-28T04:05:39.638Z,0
2017-02-28T04:06:39.608Z,0
2017-02-28T04:07:39.612Z,0
2017-02-28T04:08:39.588Z,0
2017-02-28T04:09:39.174Z,0
2017-02-28T04:10:39.129Z,0
2017-02-28T04:11:39.509Z,0
2017-02-28T04:12:39.079Z,0
2017-02-28T04:13:39.469Z,0
2017-02-28T04:14:39.062Z,0
2017-02-28T04:15:39.422Z,0
2017-02-28T04:16:39.020Z,0
2017-02-28T04:17:39.383Z,0
2017-02-28T04:18:39.360Z,0
2017-02-28T04:19:38.949Z,0
2017-02-28T04:20:39.331Z,0
2017-02-28T04:21:39.313Z,0
2017-02-28T04:22:39.310Z,0
2017-02-28T04:23:39.264Z,0
2017-02-28T04:24:39.252Z,0
2017-02-28T04:25:39.231Z,0
2017-02-28T04:26:39.241Z,0
2017-02-28T04:27:39.184Z,0
2017-02-28T04:28:39.183Z,0
2017-02-28T04:29:39.135Z,0
2017-02-28T04:30:39.134Z,0
2017-02-28T04:31:39.098Z,0
2017-02-28T04:32:38.697Z,0
2017-02-28T04:33:39.056Z,0
2017-02-28T04:34:39.050Z,0
2017-02-28T04:35:39.041Z,0
2017-02-28T04:36:39.061Z,0
2017-02-28T04:37:38.632Z,0
2017-02-28T04:38:38.975Z,0
2017-02-28T04:39:38.966Z,0
2017-02-28T04:40:38.932Z,0
2017-02-28T04:41:38.918Z,0
2017-02-28T04:42:38.900Z,0
2017-02-28T04:43:38.874Z,0
2017-02-28T04:44:38.882Z,0
2017-02-28T04:45:38.833Z,0
2017-02-28T04:46:38.432Z,0
2017-02-28T04:47:38.797Z,0
2017-02-28T04:48:38.978Z,0
2017-02-28T04:49:38.756Z,0
2017-02-28T04:50:38.726Z,0
2017-02-28T04:51:38.717Z,0
2017-02-28T04:52:37.496Z,0
2017-02-28T04:53:38.688Z,0
2017-02-28T04:54:38.669Z,0
2017-02-28T04:55:38.231Z,0
2017-02-28T04:56:38.613Z,0
2017-02-28T04:57:38.187Z,0
2017-02-28T04:58:38.187Z,0
2017-02-28T04:59:38.575Z,0
2017-02-28T05:00:38.533Z,0
2017-02-28T05:01:38.505Z,0
2017-02-28T05:02:38.495Z,0
2017-02-28T05:03:38.069Z,0
2017-02-28T05:04:38.062Z,0
2017-02-28T05:05:38.431Z,0
2017-02-28T05:06:38.015Z,0
2017-02-28T05:07:38.016Z,0
2017-02-28T05:08:38.385Z,0
2017-02-28T05:09:38.361Z,0
2017-02-28T05:10:37.531Z,0
2017-02-28T05:11:37.939Z,0
2017-02-28T05:12:38.291Z,0
2017-02-28T05:13:37.895Z,0
2017-02-28T05:14:38.274Z,0
2017-02-28T05:15:38.234Z,0
2017-02-28T05:16:38.219Z,0
2017-02-28T05:17:37.408Z,0
2017-02-28T05:18:37.777Z,0
2017-02-28T05:19:38.174Z,0
2017-02-28T05:20:38.161Z,0
2017-02-28T05:21:37.725Z,0
2017-02-28T05:22:37.706Z,0
2017-02-28T05:23:38.067Z,0
2017-02-28T05:24:38.064Z,0
2017-02-28T05:25:38.030Z,0
2017-02-28T05:26:37.624Z,0
2017-02-28T05:27:38.007Z,0
2017-02-28T05:28:37.986Z,0
2017-02-28T05:29:37.970Z,0
2017-02-28T05:30:37.928Z,0
2017-02-28T05:31:37.925Z,0
2017-02-28T05:32:37.898Z,0
2017-02-28T05:33:37.893Z,0
2017-02-28T05:34:37.907Z,0
2017-02-28T05:35:37.847Z,0
2017-02-28T05:36:37.437Z,0
2017-02-28T05:37:37.405Z,0
2017-02-28T05:38:37.795Z,0
2017-02-28T05:39:37.378Z,0
2017-02-28T05:40:37.758Z,0
2017-02-28T05:41:37.728Z,0
2017-02-28T05:42:37.312Z,0
2017-02-28T05:43:37.674Z,0
2017-02-28T05:44:37.654Z,0
2017-02-28T05:45:37.647Z,0
2017-02-28T05:46:37.625Z,0
2017-02-28T05:47:37.210Z,0
2017-02-28T05:48:37.186Z,0
2017-02-28T05:49:37.568Z,0
2017-02-28T05:50:37.574Z,0
2017-02-28T05:51:37.614Z,0
2017-02-28T05:52:37.119Z,0
2017-02-28T05:53:37.102Z,0
2017-02-28T05:54:37.471Z,0
2017-02-28T05:55:37.466Z,4
2017-02-28T05:56:37.439Z,4
2017-02-28T05:57:37.025Z,0
2017-02-28T05:58:37.380Z,0
2017-02-28T05:59:37.367Z,4
2017-02-28T06:00:36.942Z,4
2017-02-28T06:01:36.928Z,4
2017-02-28T06:02:36.908Z,4
2017-02-28T06:03:37.313Z,8
2017-02-28T06:04:37.270Z,8
2017-02-28T06:05:37.253Z,12
2017-02-28T06:06:36.824Z,12
2017-02-28T06:07:37.228Z,8
2017-02-28T06:08:37.197Z,12
2017-02-28T06:09:36.785Z,16
2017-02-28T06:10:37.158Z,20
2017-02-28T06:11:37.153Z,24
2017-02-28T06:12:36.717Z,32
2017-02-28T06:13:37.095Z,36
2017-02-28T06:14:37.084Z,44
2017-02-28T06:15:37.055Z,56
2017-02-28T06:16:37.034Z,68
2017-02-28T06:17:37.029Z,76
2017-02-28T06:18:36.998Z,80
2017-02-28T06:19:36.973Z,76
2017-02-28T06:20:36.955Z,80
2017-02-28T06:21:36.549Z,80
2017-02-28T06:22:36.916Z,76
2017-02-28T06:23:36.906Z,76
2017-02-28T06:24:36.892Z,88
2017-02-28T06:25:36.471Z,96
2017-02-28T06:26:36.837Z,96
2017-02-28T06:27:36.813Z,104
2017-02-28T06:28:36.823Z,124
2017-02-28T06:29:37.075Z,148
2017-02-28T06:30:36.794Z,168
2017-02-28T06:31:36.756Z,184
2017-02-28T06:32:35.941Z,200
2017-02-28T06:33:36.711Z,204
2017-02-28T06:34:36.285Z,204
2017-02-28T06:35:36.289Z,200
2017-02-28T06:36:36.249Z,212
2017-02-28T06:37:36.234Z,244
2017-02-28T06:38:36.627Z,268
2017-02-28T06:39:36.590Z,312
2017-02-28T06:40:36.578Z,372
2017-02-28T06:41:36.555Z,412
2017-02-28T06:42:36.547Z,428
2017-02-28T06:43:36.110Z,452
2017-02-28T06:44:36.495Z,468
2017-02-28T06:45:36.477Z,468
2017-02-28T06:46:36.455Z,516
2017-02-28T06:47:35.662Z,556
2017-02-28T06:48:36.612Z,568
2017-02-28T06:49:36.414Z,552
2017-02-28T06:50:36.371Z,468
2017-02-28T06:51:36.374Z,436
2017-02-28T06:52:36.331Z,360
2017-02-28T06:53:36.318Z,272
2017-02-28T06:54:36.300Z,324
2017-02-28T06:55:36.297Z,408
2017-02-28T06:56:36.257Z,680
2017-02-28T06:57:35.846Z,756
2017-02-28T06:58:35.845Z,828
2017-02-28T06:59:36.219Z,892
2017-02-28T07:00:35.800Z,896
2017-02-28T07:01:36.158Z,908
2017-02-28T07:02:36.166Z,848
2017-02-28T07:03:36.135Z,704
2017-02-28T07:04:35.710Z,736
2017-02-28T07:05:36.097Z,780
2017-02-28T07:06:36.075Z,928
2017-02-28T07:07:36.064Z,992
2017-02-28T07:08:36.042Z,1088
2017-02-28T07:09:36.007Z,1084
2017-02-28T07:10:35.587Z,1104
2017-02-28T07:11:35.590Z,1100
2017-02-28T07:12:35.576Z,1328
2017-02-28T07:13:35.546Z,1360
2017-02-28T07:14:35.918Z,1404
2017-02-28T07:15:35.900Z,1228
2017-02-28T07:16:35.476Z,944
2017-02-28T07:17:35.866Z,808
2017-02-28T07:18:35.040Z,844
2017-02-28T07:19:35.437Z,1032
2017-02-28T07:20:35.803Z,1048
2017-02-28T07:21:35.780Z,1124
2017-02-28T07:22:35.773Z,1068
2017-02-28T07:23:35.749Z,1156
2017-02-28T07:24:35.726Z,1484
2017-02-28T07:25:35.699Z,1832
2017-02-28T07:26:35.674Z,1880
2017-02-28T07:27:35.664Z,1736
2017-02-28T07:28:35.644Z,1684
2017-02-28T07:29:34.838Z,1420
2017-02-28T07:30:35.598Z,1424
2017-02-28T07:31:35.594Z,1248
2017-02-28T07:32:35.571Z,1124
2017-02-28T07:33:35.542Z,1368
2017-02-28T07:34:35.144Z,1460
2017-02-28T07:35:35.504Z,1112
2017-02-28T07:36:35.097Z,1308
2017-02-28T07:37:35.468Z,1312
2017-02-28T07:38:35.444Z,1120
2017-02-28T07:39:35.450Z,1232
2017-02-28T07:40:35.021Z,1856
2017-02-28T07:41:35.387Z,2604
2017-02-28T07:42:35.368Z,2928
2017-02-28T07:43:34.976Z,2616
2017-02-28T07:44:35.353Z,2296
2017-02-28T07:45:34.924Z,1660
2017-02-28T07:46:35.311Z,992
2017-02-28T07:47:34.893Z,776
2017-02-28T07:48:35.266Z,1132
2017-02-28T07:49:34.840Z,1840
2017-02-28T07:50:35.214Z,2048
2017-02-28T07:51:35.219Z,1784
2017-02-28T07:52:35.199Z,2104
2017-02-28T07:53:35.173Z,2552
2017-02-28T07:54:35.144Z,2584
2017-02-28T07:55:35.126Z,2764
2017-02-28T07:56:35.121Z,3040
2017-02-28T07:57:35.103Z,3092
2017-02-28T07:58:35.066Z,3816
2017-02-28T07:59:35.057Z,4584
2017-02-28T08:00:35.036Z,4152
2017-02-28T08:01:35.018Z,3044
2017-02-28T08:02:35.002Z,2148
2017-02-28T08:03:34.971Z,1644
2017-02-28T08:04:35.044Z,1480
2017-02-28T08:05:34.942Z,1612
2017-02-28T08:06:34.910Z,1844
2017-02-28T08:07:34.889Z,1964
2017-02-28T08:08:34.900Z,1784
2017-02-28T08:09:34.072Z,1756
2017-02-28T08:10:34.835Z,2052
2017-02-28T08:11:34.430Z,1944
2017-02-28T08:12:34.820Z,1996
2017-02-28T08:13:34.794Z,1952
2017-02-28T08:14:34.774Z,2040
2017-02-28T08:15:34.746Z,2164
2017-02-28T08:16:34.749Z,2428
2017-02-28T08:17:34.724Z,2092
2017-02-28T08:18:34.691Z,2076
2017-02-28T08:19:34.670Z,2220
2017-02-28T08:20:34.663Z,1960
2017-02-28T08:21:34.663Z,2184
2017-02-28T08:22:34.609Z,2476
2017-02-28T08:23:33.823Z,2596
2017-02-28T08:24:34.587Z,2552
2017-02-28T08:25:34.557Z,2372
2017-02-28T08:26:34.548Z,2628
2017-02-28T08:27:34.526Z,2728
2017-02-28T08:28:34.101Z,2680
2017-02-28T08:29:34.488Z,2348
2017-02-28T08:30:34.463Z,2260
2017-02-28T08:31:34.048Z,2400
2017-02-28T08:32:34.430Z,1896
2017-02-28T08:33:34.410Z,1528
2017-02-28T08:34:34.396Z,1880
2017-02-28T08:35:34.367Z,1936
2017-02-28T08:36:34.371Z,1620
2017-02-28T08:37:34.339Z,1732
2017-02-28T08:38:34.318Z,1700
2017-02-28T08:39:33.902Z,1764
2017-02-28T08:40:34.285Z,1384
2017-02-28T08:41:34.269Z,1920
2017-02-28T08:42:33.842Z,2064
2017-02-28T08:43:34.230Z,2132
2017-02-28T08:44:34.210Z,2680
2017-02-28T08:45:34.195Z,2196
2017-02-28T08:46:34.167Z,2076
2017-02-28T08:47:34.167Z,2460
2017-02-28T08:48:33.936Z,2408
2017-02-28T08:49:33.720Z,2092
2017-02-28T08:50:34.083Z,1608
2017-02-28T08:51:33.679Z,1524
2017-02-28T08:52:34.065Z,1608
2017-02-28T08:53:34.037Z,2024
2017-02-28T08:54:33.623Z,2056
2017-02-28T08:55:34.002Z,1572
2017-02-28T08:56:33.578Z,1820
2017-02-28T08:57:33.959Z,2268
2017-02-28T08:58:33.928Z,2360
2017-02-28T08:59:33.922Z,2136
2017-02-28T09:00:33.907Z,2336
2017-02-28T09:01:33.883Z,2660
2017-02-28T09:02:33.886Z,3120
2017-02-28T09:03:33.063Z,3476
2017-02-28T09:04:33.840Z,5116
2017-02-28T09:05:33.806Z,4720
2017-02-28T09:06:33.027Z,4184
2017-02-28T09:07:33.768Z,4216
2017-02-28T09:08:33.746Z,3912
2017-02-28T09:09:33.737Z,3752
2017-02-28T09:10:33.729Z,3452
2017-02-28T09:11:33.686Z,4028
2017-02-28T09:12:33.686Z,3584
2017-02-28T09:13:33.675Z,3512
2017-02-28T09:14:33.249Z,3392
2017-02-28T09:15:33.631Z,3560
2017-02-28T09:16:33.597Z,3068
2017-02-28T09:17:33.578Z,3652
2017-02-28T09:18:33.167Z,4016
2017-02-28T09:19:33.547Z,4592
2017-02-28T09:20:33.541Z,5376
2017-02-28T09:21:33.521Z,5248
2017-02-28T09:22:33.500Z,5192
2017-02-28T09:23:33.472Z,6272
2017-02-28T09:24:33.454Z,6816
2017-02-28T09:25:33.468Z,5364
2017-02-28T09:26:33.428Z,4104
2017-02-28T09:27:32.998Z,4072
2017-02-28T09:28:33.391Z,4284
2017-02-28T09:29:32.971Z,3720
2017-02-28T09:30:33.361Z,3756
2017-02-28T09:31:33.327Z,4692
2017-02-28T09:32:33.299Z,5492
2017-02-28T09:33:33.315Z,4824
2017-02-28T09:34:33.291Z,4084
2017-02-28T09:35:33.286Z,4512
2017-02-28T09:36:33.247Z,5052
2017-02-28T09:37:33.263Z,5368
2017-02-28T09:38:32.814Z,4520
2017-02-28T09:39:33.186Z,4484
2017-02-28T09:40:33.172Z,5864
2017-02-28T09:41:33.141Z,6420
2017-02-28T09:42:33.142Z,6508
2017-02-28T09:43:33.115Z,5596
2017-02-28T09:44:33.091Z,5464
2017-02-28T09:45:32.714Z,4572
2017-02-28T09:46:33.059Z,3976
2017-02-28T09:47:32.659Z,4164
2017-02-28T09:48:33.037Z,3224
2017-02-28T09:49:33.019Z,3160
2017-02-28T09:50:33.011Z,2688
2017-02-28T09:51:32.604Z,3620
2017-02-28T09:52:32.970Z,3412
2017-02-28T09:53:32.941Z,2716
2017-02-28T09:54:32.937Z,3188
2017-02-28T09:55:32.505Z,4444
2017-02-28T09:56:32.892Z,6400
2017-02-28T09:57:32.880Z,7640
2017-02-28T09:58:32.897Z,7868
2017-02-28T09:59:32.838Z,9080
2017-02-28T10:00:32.825Z,9640
2017-02-28T10:01:32.815Z,8828
2017-02-28T10:02:32.797Z,8148
2017-02-28T10:03:32.768Z,8412
2017-02-28T10:04:32.744Z,6816
2017-02-28T10:05:32.731Z,5344
2017-02-28T10:06:32.716Z,5392
2017-02-28T10:07:32.709Z,5128
2017-02-28T10:08:32.677Z,5168
2017-02-28T10:09:32.284Z,5844
2017-02-28T10:10:32.661Z,5292
2017-02-28T10:11:32.251Z,3392
2017-02-28T10:12:32.616Z,3856
2017-02-28T10:13:32.612Z,4864
2017-02-28T10:14:32.197Z,7160
2017-02-28T10:15:32.579Z,9404
2017-02-28T10:16:32.541Z,8500
2017-02-28T10:17:32.536Z,7268
2017-02-28T10:18:32.515Z,5804
2017-02-28T10:19:32.090Z,5328
2017-02-28T10:20:32.471Z,4968
2017-02-28T10:21:32.461Z,4888
2017-02-28T10:22:32.462Z,3756
2017-02-28T10:23:32.436Z,3568
2017-02-28T10:24:32.410Z,3008
2017-02-28T10:25:32.400Z,2868
2017-02-28T10:26:32.371Z,2868
2017-02-28T10:27:32.359Z,3052
2017-02-28T10:28:32.344Z,3564
2017-02-28T10:29:32.343Z,4416
2017-02-28T10:30:32.307Z,5008
2017-02-28T10:31:32.290Z,4176
2017-02-28T10:32:32.282Z,4040
2017-02-28T10:33:32.261Z,5588
2017-02-28T10:34:32.227Z,5564
2017-02-28T10:35:31.821Z,5896
2017-02-28T10:36:32.218Z,6948
2017-02-28T10:37:32.187Z,6268
2017-02-28T10:38:32.161Z,4764
2017-02-28T10:39:32.164Z,5328
2017-02-28T10:40:31.740Z,5220
2017-02-28T10:41:31.737Z,5832
2017-02-28T10:42:31.704Z,4396
2017-02-28T10:43:31.719Z,4168
2017-02-28T10:44:32.070Z,5356
2017-02-28T10:45:31.658Z,3948
2017-02-28T10:46:32.027Z,4708
2017-02-28T10:47:32.010Z,5292
2017-02-28T10:48:32.410Z,6200
2017-02-28T10:49:31.979Z,5120
2017-02-28T10:50:31.558Z,5108
2017-02-28T10:51:31.947Z,4668
2017-02-28T10:52:31.919Z,5540
2017-02-28T10:53:31.920Z,6460
2017-02-28T10:54:31.898Z,7424
2017-02-28T10:55:31.863Z,8860
2017-02-28T10:56:31.856Z,7760
2017-02-28T10:57:31.855Z,7416
2017-02-28T10:58:31.825Z,6160
2017-02-28T10:59:31.823Z,6056
2017-02-28T11:00:31.816Z,8980
2017-02-28T11:01:31.809Z,9552
2017-02-28T11:02:31.765Z,8736
2017-02-28T11:03:31.827Z,6776
2017-02-28T11:04:31.732Z,6500
2017-02-28T11:05:31.704Z,6808
2017-02-28T11:06:31.710Z,6788
2017-02-28T11:07:31.696Z,4204
2017-02-28T11:08:31.661Z,5264
2017-02-28T11:09:31.245Z,8156
2017-02-28T11:10:31.609Z,14548
2017-02-28T11:11:31.610Z,8656
2017-02-28T11:12:31.184Z,9836
2017-02-28T11:13:31.583Z,10720
2017-02-28T11:14:30.417Z,14804
2017-02-28T11:15:31.555Z,14316
2017-02-28T11:16:31.532Z,14480
2017-02-28T11:17:31.509Z,10908
2017-02-28T11:18:31.488Z,13344
2017-02-28T11:19:31.479Z,13116
2017-02-28T11:20:31.071Z,12604
2017-02-28T11:21:31.434Z,10820
2017-02-28T11:22:31.042Z,11564
2017-02-28T11:23:31.010Z,20352
2017-02-28T11:24:31.404Z,16800
2017-02-28T11:25:31.372Z,34752
2017-02-28T11:26:31.360Z,31200
2017-02-28T11:27:30.946Z,25792
2017-02-28T11:28:31.345Z,11908
2017-02-28T11:29:31.312Z,11436
2017-02-28T11:30:31.324Z,13224
2017-02-28T11:31:31.305Z,32576
2017-02-28T11:32:31.294Z,32064
2017-02-28T11:33:31.265Z,33216
2017-02-28T11:34:31.243Z,37920
2017-02-28T11:35:31.251Z,35904
2017-02-28T11:36:31.239Z,34368
2017-02-28T11:37:31.214Z,25984
2017-02-28T11:38:31.204Z,35200
2017-02-28T11:39:31.187Z,25920
2017-02-28T11:40:31.188Z,29760
2017-02-28T11:41:30.798Z,12296
2017-02-28T11:42:30.761Z,9356
2017-02-28T11:43:31.145Z,8252
2017-02-28T11:44:31.148Z,9040
2017-02-28T11:45:31.135Z,8916
2017-02-28T11:46:31.103Z,13544
2017-02-28T11:47:31.103Z,15644
2017-02-28T11:48:31.098Z,45984
2017-02-28T11:49:31.088Z,12528
2017-02-28T11:50:31.058Z,12576
2017-02-28T11:51:30.656Z,18528
2017-02-28T11:52:30.680Z,17728
2017-02-28T11:53:31.018Z,15040
2017-02-28T11:54:31.014Z,14480
2017-02-28T11:55:31.010Z,12480
2017-02-28T11:56:30.591Z,25600
2017-02-28T11:57:30.981Z,39712
2017-02-28T11:58:30.966Z,13328
2017-02-28T11:59:30.955Z,15600
2017-02-28T12:00:30.931Z,14160
2017-02-28T12:01:30.932Z,12300
2017-02-28T12:02:30.916Z,11188
2017-02-28T12:03:30.907Z,9448
2017-02-28T12:04:30.884Z,9332
2017-02-28T12:05:30.882Z,9656
2017-02-28T12:06:30.484Z,9784
2017-02-28T12:07:30.837Z,8080
2017-02-28T12:08:30.855Z,8328
2017-02-28T12:09:30.828Z,9092
2017-02-28T12:10:30.420Z,9504
2017-02-28T12:11:30.830Z,8108
2017-02-28T12:12:30.378Z,5988
2017-02-28T12:13:30.382Z,7068
2017-02-28T12:14:30.745Z,8944
2017-02-28T12:15:30.348Z,8184
2017-02-28T12:16:30.730Z,5992
2017-02-28T12:17:30.716Z,5720
2017-02-28T12:18:30.710Z,6200
2017-02-28T12:19:30.506Z,7560
2017-02-28T12:20:30.718Z,7964
2017-02-28T12:21:30.665Z,5500
2017-02-28T12:22:30.239Z,4332
2017-02-28T12:23:30.644Z,3800
2017-02-28T12:24:30.631Z,3608
2017-02-28T12:25:30.607Z,4412
2017-02-28T12:26:30.585Z,5764
2017-02-28T12:27:30.190Z,4992
2017-02-28T12:28:30.543Z,4628
2017-02-28T12:29:30.149Z,4176
2017-02-28T12:30:30.547Z,3968
2017-02-28T12:31:30.507Z,3492
2017-02-28T12:32:30.493Z,3056
2017-02-28T12:33:30.481Z,3224
2017-02-28T12:34:30.457Z,5588
2017-02-28T12:35:30.436Z,8484
2017-02-28T12:36:30.040Z,13936
2017-02-28T12:37:30.406Z,13156
2017-02-28T12:38:30.402Z,10456
2017-02-28T12:39:30.382Z,9472
2017-02-28T12:40:29.974Z,10996
2017-02-28T12:41:30.362Z,9700
2017-02-28T12:42:30.337Z,10700
2017-02-28T12:43:30.541Z,8936
2017-02-28T12:44:29.934Z,12572
2017-02-28T12:45:30.287Z,20736
2017-02-28T12:46:29.915Z,35616
2017-02-28T12:47:29.890Z,33856
2017-02-28T12:48:30.276Z,11768
2017-02-28T12:49:30.243Z,10796
2017-02-28T12:50:29.830Z,9884
2017-02-28T12:51:30.226Z,10396
2017-02-28T12:52:30.190Z,28416
2017-02-28T12:53:30.185Z,17824
2017-02-28T12:54:29.773Z,31008
2017-02-28T12:55:30.179Z,29504
2017-02-28T12:56:29.742Z,12520
2017-02-28T12:57:30.140Z,10020
2017-02-28T12:58:29.716Z,12004
2017-02-28T12:59:30.097Z,31040
2017-02-28T13:00:29.687Z,31808
2017-02-28T13:01:29.699Z,27840
2017-02-28T13:02:30.063Z,32000
2017-02-28T13:03:30.053Z,18368
2017-02-28T13:04:30.056Z,17504
2017-02-28T13:05:30.016Z,20864
2017-02-28T13:06:30.010Z,15724
2017-02-28T13:07:30.005Z,28800
2017-02-28T13:08:29.996Z,28832
2017-02-28T13:09:29.995Z,21408
2017-02-28T13:10:29.972Z,13064
2017-02-28T13:11:29.950Z,11308
2017-02-28T13:12:29.932Z,9284
2017-02-28T13:13:29.938Z,7484
2017-02-28T13:14:29.936Z,7428
2017-02-28T13:15:29.897Z,8064
2017-02-28T13:16:29.904Z,16256
2017-02-28T13:17:29.883Z,9748
2017-02-28T13:18:29.475Z,9712
2017-02-28T13:19:29.867Z,9420
2017-02-28T13:20:29.854Z,9224
2017-02-28T13:21:29.829Z,7752
2017-02-28T13:22:29.826Z,6328
2017-02-28T13:23:29.017Z,5780
2017-02-28T13:24:29.847Z,5800
2017-02-28T13:25:29.769Z,5428
2017-02-28T13:26:29.766Z,5364
2017-02-28T13:27:29.747Z,6568
2017-02-28T13:28:28.941Z,7980
2017-02-28T13:29:29.742Z,8144
2017-02-28T13:30:29.712Z,9044
2017-02-28T13:31:29.697Z,10072
2017-02-28T13:32:29.696Z,13252
2017-02-28T13:33:29.680Z,12920
2017-02-28T13:34:29.685Z,12600
2017-02-28T13:35:29.649Z,10356
2017-02-28T13:36:29.646Z,8616
2017-02-28T13:37:29.606Z,7212
2017-02-28T13:38:29.613Z,6336
2017-02-28T13:39:29.214Z,5892
2017-02-28T13:40:29.662Z,6308
2017-02-28T13:41:29.565Z,7480
2017-02-28T13:42:28.764Z,7996
2017-02-28T13:43:29.139Z,7640
2017-02-28T13:44:29.542Z,8172
2017-02-28T13:45:29.519Z,8236
2017-02-28T13:46:29.499Z,7828
2017-02-28T13:47:29.488Z,7708
2017-02-28T13:48:29.074Z,8476
2017-02-28T13:49:29.455Z,8336
2017-02-28T13:50:29.435Z,8900
2017-02-28T13:51:29.019Z,8956
2017-02-28T13:52:29.409Z,8768
2017-02-28T13:53:29.442Z,11072
2017-02-28T13:54:29.380Z,11840
2017-02-28T13:55:29.365Z,15080